createdAt,value
2023-03-24T00:01:44.728Z,9.32
2023-03-24T00:04:16.588Z,9.28
2023-03-24T00:06:49.684Z,9.25
2023-03-24T00:09:19.448Z,9.22
2023-03-24T00:11:51.332Z,9.18
2023-03-24T00:14:21.001Z,9.12
2023-03-24T00:16:53.308Z,9.07
2023-03-24T00:19:24.126Z,9.01
2023-03-24T00:21:56.335Z,8.95
2023-03-24T00:24:26.323Z,8.89
2023-03-24T00:26:58.759Z,8.82
2023-03-24T00:29:31.451Z,8.75
2023-03-24T00:32:02.508Z,8.68
2023-03-24T00:34:34.768Z,8.62
2023-03-24T00:37:05.155Z,8.55
2023-03-24T00:39:34.582Z,8.53
2023-03-24T00:42:06.219Z,8.51
2023-03-24T00:44:36.570Z,8.46
2023-03-24T00:47:07.065Z,8.47
2023-03-24T00:49:50.000Z,8.51
2023-03-24T00:52:21.448Z,8.54
2023-03-24T00:54:58.702Z,8.57
2023-03-24T00:57:30.461Z,8.56
2023-03-24T00:59:59.793Z,8.54
2023-03-24T01:02:32.545Z,8.51
2023-03-24T01:05:04.579Z,8.48
2023-03-24T01:07:35.508Z,8.46
2023-03-24T01:10:08.818Z,8.42
2023-03-24T01:12:38.545Z,8.38
2023-03-24T01:15:15.304Z,8.37
2023-03-24T01:17:47.476Z,8.32
2023-03-24T01:20:20.602Z,8.24
2023-03-24T01:22:52.795Z,8.20
2023-03-24T01:25:27.134Z,8.14
2023-03-24T01:27:57.245Z,8.08
2023-03-24T01:30:29.444Z,8.05
2023-03-24T01:33:00.935Z,8.01
2023-03-24T01:35:31.328Z,7.98
2023-03-24T01:38:02.035Z,7.97
2023-03-24T01:40:34.115Z,7.95
2023-03-24T01:43:04.382Z,7.92
2023-03-24T01:45:59.690Z,7.92
2023-03-24T01:48:33.071Z,7.92
2023-03-24T01:51:03.453Z,7.90
2023-03-24T01:53:35.469Z,7.89
2023-03-24T01:56:08.291Z,7.87
2023-03-24T01:58:44.916Z,7.84
2023-03-24T02:01:30.357Z,7.78
2023-03-24T02:04:13.267Z,7.70
2023-03-24T02:06:44.582Z,7.64
2023-03-24T02:09:16.009Z,7.57
2023-03-24T02:11:46.234Z,7.51
2023-03-24T02:14:16.929Z,7.47
2023-03-24T02:16:50.195Z,7.40
2023-03-24T02:19:42.314Z,7.37
2023-03-24T02:22:14.643Z,7.33
2023-03-24T02:25:04.745Z,7.32
2023-03-24T02:27:55.925Z,7.32
2023-03-24T02:30:42.623Z,7.36
2023-03-24T02:33:14.661Z,7.40
2023-03-24T02:35:47.053Z,7.48
2023-03-24T02:38:29.321Z,7.56
2023-03-24T02:41:02.967Z,7.67
2023-03-24T02:43:51.382Z,7.77
2023-03-24T02:46:26.219Z,7.86
2023-03-24T02:49:07.954Z,7.92
2023-03-24T02:51:44.147Z,7.95
2023-03-24T02:54:17.266Z,8.00
2023-03-24T02:57:07.118Z,8.03
2023-03-24T03:00:01.216Z,8.03
2023-03-24T03:03:04.421Z,8.02
2023-03-24T03:05:40.057Z,7.99
2023-03-24T03:08:13.169Z,7.98
2023-03-24T03:10:45.816Z,7.99
2023-03-24T03:13:35.936Z,8.00
2023-03-24T03:16:09.447Z,8.05
2023-03-24T03:18:46.935Z,8.07
2023-03-24T03:21:17.437Z,8.09
2023-03-24T03:24:09.879Z,8.08
2023-03-24T03:26:41.662Z,8.08
2023-03-24T03:29:18.058Z,8.07
2023-03-24T03:32:00.196Z,8.05
2023-03-24T03:34:38.072Z,8.05
2023-03-24T03:37:11.083Z,8.01
2023-03-24T03:39:50.350Z,7.98
2023-03-24T03:42:22.838Z,7.94
2023-03-24T03:44:53.234Z,7.92
2023-03-24T03:47:24.286Z,7.90
2023-03-24T03:49:56.450Z,7.87
2023-03-24T03:52:27.955Z,7.82
2023-03-24T03:54:59.785Z,7.77
2023-03-24T03:57:33.261Z,7.73
2023-03-24T04:00:29.916Z,7.70
2023-03-24T04:03:40.180Z,7.67
2023-03-24T04:06:27.598Z,7.66
2023-03-24T04:09:05.916Z,7.66
2023-03-24T04:12:05.081Z,7.68
2023-03-24T04:14:58.511Z,7.71
2023-03-24T04:17:57.630Z,7.74
2023-03-24T04:20:54.439Z,7.77
2023-03-24T04:23:50.332Z,7.77
2023-03-24T04:26:43.030Z,7.77
2023-03-24T04:29:19.753Z,7.77
2023-03-24T04:31:56.439Z,7.78
2023-03-24T04:34:42.142Z,7.80
2023-03-24T04:37:29.042Z,7.82
2023-03-24T04:40:04.974Z,7.85
2023-03-24T04:42:56.724Z,7.88
2023-03-24T04:45:33.857Z,7.91
2023-03-24T04:48:26.674Z,7.94
2023-03-24T04:51:23.641Z,7.96
2023-03-24T04:54:03.686Z,7.98
2023-03-24T04:56:55.197Z,8.00
2023-03-24T04:59:37.564Z,8.03
2023-03-24T05:02:09.655Z,8.05
2023-03-24T05:04:58.426Z,8.09
2023-03-24T05:07:36.532Z,8.15
2023-03-24T05:10:09.911Z,8.16
2023-03-24T05:12:45.580Z,8.19
2023-03-24T05:15:35.382Z,8.22
2023-03-24T05:18:19.289Z,8.24
2023-03-24T05:20:49.163Z,8.27
2023-03-24T05:23:22.776Z,8.30
2023-03-24T05:25:53.215Z,8.32
2023-03-24T05:28:24.371Z,8.35
2023-03-24T05:30:54.830Z,8.37
2023-03-24T05:33:40.871Z,8.42
2023-03-24T05:36:12.426Z,8.45
2023-03-24T05:38:43.439Z,8.48
2023-03-24T05:41:12.183Z,8.52
2023-03-24T05:43:44.921Z,8.56
2023-03-24T05:46:16.232Z,8.61
2023-03-24T05:48:48.963Z,8.66
2023-03-24T05:51:19.915Z,8.71
2023-03-24T05:54:05.071Z,8.77
2023-03-24T05:56:40.404Z,8.83
2023-03-24T05:59:36.143Z,8.86
2023-03-24T06:02:37.404Z,8.91
2023-03-24T06:05:12.940Z,8.95
2023-03-24T06:07:44.662Z,9.00
2023-03-24T06:29:06.779Z,9.40
2023-03-24T06:31:39.684Z,9.45
2023-03-24T06:34:12.270Z,9.48
2023-03-24T06:36:47.397Z,9.51
2023-03-24T06:39:17.349Z,9.56
2023-03-24T06:41:50.334Z,9.61
2023-03-24T06:44:42.811Z,9.66
2023-03-24T06:47:15.991Z,9.75
2023-03-24T06:50:06.456Z,9.83
2023-03-24T06:52:38.272Z,9.92
2023-03-24T06:55:10.124Z,10.01
2023-03-24T06:57:40.419Z,10.10
2023-03-24T07:00:31.011Z,10.19
2023-03-24T07:03:25.499Z,10.28
2023-03-24T07:06:20.036Z,10.37
2023-03-24T07:08:59.500Z,10.46
2023-03-24T07:11:30.227Z,10.58
2023-03-24T07:14:02.739Z,10.71
2023-03-24T07:17:25.586Z,10.89
2023-03-24T07:20:19.147Z,11.13
2023-03-24T07:23:00.690Z,11.22
2023-03-24T07:25:50.801Z,11.30
2023-03-24T07:28:51.914Z,11.45
2023-03-24T07:31:41.777Z,11.65
2023-03-24T07:34:19.761Z,11.90
2023-03-24T07:36:51.218Z,12.19
2023-03-24T07:39:22.029Z,12.60
2023-03-24T07:41:55.002Z,13.15
2023-03-24T07:44:35.178Z,13.72
2023-03-24T07:47:06.300Z,14.24
2023-03-24T07:50:17.367Z,15.13
2023-03-24T07:53:10.149Z,16.09
2023-03-24T07:55:40.556Z,15.97
2023-03-24T07:58:16.494Z,15.84
2023-03-24T08:01:00.194Z,16.12
2023-03-24T08:03:38.316Z,16.74
2023-03-24T08:06:31.547Z,17.52
2023-03-24T08:09:04.996Z,17.42
2023-03-24T08:11:34.992Z,17.05
2023-03-24T08:14:06.318Z,16.79
2023-03-24T08:16:35.550Z,16.43
2023-03-24T08:19:06.241Z,16.03
2023-03-24T08:21:36.525Z,15.57
2023-03-24T08:24:10.577Z,15.10
2023-03-24T08:26:47.564Z,14.68
2023-03-24T08:29:25.135Z,14.33
2023-03-24T08:32:03.308Z,13.98
2023-03-24T08:34:41.921Z,13.72
2023-03-24T08:37:15.457Z,13.55
2023-03-24T08:39:45.113Z,13.40
2023-03-24T08:42:15.525Z,13.26
2023-03-24T08:44:46.962Z,13.13
2023-03-24T08:47:16.187Z,13.02
2023-03-24T08:49:47.256Z,12.92
2023-03-24T08:52:20.942Z,12.81
2023-03-24T08:54:58.797Z,12.70
2023-03-24T08:57:34.277Z,12.59
2023-03-24T09:00:13.321Z,12.50
2023-03-24T09:02:47.411Z,12.45
2023-03-24T09:05:29.362Z,12.43
2023-03-24T09:08:09.607Z,12.41
2023-03-24T09:10:52.973Z,12.36
2023-03-24T09:13:23.523Z,12.29
2023-03-24T09:15:55.186Z,12.28
2023-03-24T09:18:26.671Z,12.32
2023-03-24T09:20:57.390Z,12.39
2023-03-24T09:23:57.034Z,12.38
2023-03-24T09:26:34.265Z,12.36
2023-03-24T09:29:05.055Z,12.38
2023-03-24T09:31:36.064Z,12.43
2023-03-24T09:34:05.357Z,12.52
2023-03-24T09:36:37.863Z,12.66
2023-03-24T09:39:09.263Z,12.76
2023-03-24T09:41:40.132Z,12.76
2023-03-24T09:44:23.134Z,12.73
2023-03-24T09:47:04.980Z,12.71
2023-03-24T09:49:39.102Z,12.77
2023-03-24T09:52:13.960Z,12.92
2023-03-24T09:54:47.952Z,13.46
2023-03-24T09:57:21.647Z,14.12
2023-03-24T09:59:52.433Z,14.64
2023-03-24T10:02:22.865Z,15.25
2023-03-24T10:04:54.024Z,15.89
2023-03-24T10:07:24.722Z,16.19
2023-03-24T10:09:57.137Z,17.35
2023-03-24T10:12:27.135Z,19.25
2023-03-24T10:15:30.894Z,21.02
2023-03-24T10:18:07.966Z,22.34
2023-03-24T10:20:45.701Z,23.35
2023-03-24T10:23:18.321Z,23.85
2023-03-24T10:26:05.444Z,24.30
2023-03-24T10:29:03.703Z,24.45
2023-03-24T10:31:36.876Z,24.27
2023-03-24T10:34:11.130Z,24.49
2023-03-24T10:36:42.023Z,24.29
2023-03-24T10:39:22.366Z,23.20
2023-03-24T10:41:57.381Z,23.32
2023-03-24T10:44:29.452Z,23.04
2023-03-24T10:47:01.687Z,22.37
2023-03-24T10:49:33.338Z,22.00
2023-03-24T10:52:04.371Z,21.30
2023-03-24T10:54:34.440Z,21.27
2023-03-24T10:57:05.565Z,20.47
2023-03-24T10:59:39.482Z,19.71
2023-03-24T11:02:11.753Z,19.27
2023-03-24T11:04:43.412Z,19.09
2023-03-24T11:07:18.152Z,18.81
2023-03-24T11:09:56.907Z,18.47
2023-03-24T11:12:31.152Z,17.92
2023-03-24T11:15:22.486Z,17.49
2023-03-24T11:18:46.711Z,17.18
2023-03-24T11:21:17.311Z,17.15
2023-03-24T11:23:48.804Z,17.07
2023-03-24T11:26:18.820Z,16.94
2023-03-24T11:28:53.931Z,16.83
2023-03-24T11:31:31.308Z,17.62
2023-03-24T11:34:09.377Z,19.33
2023-03-24T11:36:45.596Z,20.58
2023-03-24T11:39:22.729Z,21.37
2023-03-24T11:42:10.712Z,21.91
2023-03-24T11:44:47.250Z,22.27
2023-03-24T11:47:39.422Z,21.69
2023-03-24T11:50:11.431Z,20.97
2023-03-24T11:52:56.086Z,20.42
2023-03-24T11:55:47.846Z,19.82
2023-03-24T11:58:20.386Z,19.45
2023-03-24T12:00:57.118Z,19.18
2023-03-24T12:03:34.553Z,18.84
2023-03-24T12:06:26.148Z,18.52
2023-03-24T12:09:07.049Z,18.24
2023-03-24T12:11:55.872Z,18.08
2023-03-24T12:14:30.680Z,17.93
2023-03-24T12:17:50.807Z,17.77
2023-03-24T12:20:27.563Z,17.65
2023-03-24T12:23:00.927Z,17.60
2023-03-24T12:25:57.453Z,17.68
2023-03-24T12:28:41.771Z,17.80
2023-03-24T12:31:20.883Z,17.89
2023-03-24T12:33:50.103Z,18.07
2023-03-24T12:36:37.665Z,18.28
2023-03-24T12:39:14.007Z,18.39
2023-03-24T12:41:50.722Z,18.41
2023-03-24T12:44:34.259Z,18.45
2023-03-24T12:47:23.266Z,18.59
2023-03-24T12:50:06.266Z,18.61
2023-03-24T12:52:51.131Z,18.41
2023-03-24T12:55:31.913Z,18.01
2023-03-24T12:58:07.151Z,17.70
2023-03-24T13:00:42.213Z,17.52
2023-03-24T13:03:21.900Z,17.40
2023-03-24T13:05:59.771Z,17.26
2023-03-24T13:08:38.403Z,17.10
2023-03-24T13:11:16.882Z,17.01
2023-03-24T13:13:56.891Z,16.88
2023-03-24T13:16:30.275Z,16.75
2023-03-24T13:19:02.742Z,16.62
2023-03-24T13:21:35.705Z,16.53
2023-03-24T13:24:11.205Z,16.46
2023-03-24T13:26:45.435Z,16.41
2023-03-24T13:29:45.577Z,16.38
2023-03-24T13:32:22.226Z,16.26
2023-03-24T13:34:58.911Z,16.16
2023-03-24T13:37:39.892Z,16.06
2023-03-24T13:40:20.603Z,15.98
2023-03-24T13:42:57.231Z,15.91
2023-03-24T13:45:35.836Z,15.84
2023-03-24T13:48:11.250Z,15.77
2023-03-24T13:50:43.243Z,15.73
2023-03-24T13:53:17.959Z,15.71
2023-03-24T13:55:51.368Z,15.69
2023-03-24T13:58:26.161Z,15.58
2023-03-24T14:01:15.130Z,15.49
2023-03-24T14:03:48.831Z,15.40
2023-03-24T14:06:20.658Z,15.32
2023-03-24T14:08:53.259Z,15.21
2023-03-24T14:11:34.557Z,15.10
2023-03-24T14:14:28.600Z,15.00
2023-03-24T14:17:18.513Z,14.95
2023-03-24T14:19:48.297Z,14.93
2023-03-24T14:22:26.655Z,14.90
2023-03-24T14:25:02.952Z,14.93
2023-03-24T14:27:39.010Z,15.01
2023-03-24T14:30:12.155Z,15.09
2023-03-24T14:32:53.903Z,15.15
2023-03-24T14:35:25.828Z,15.27
2023-03-24T14:38:00.658Z,15.41
2023-03-24T14:40:36.186Z,15.52
2023-03-24T14:43:16.571Z,15.57
2023-03-24T14:45:57.445Z,15.64
2023-03-24T14:48:58.019Z,15.70
2023-03-24T14:51:37.034Z,15.74
2023-03-24T14:54:33.535Z,15.78
2023-03-24T14:57:04.195Z,15.83
2023-03-24T14:59:53.711Z,15.87
2023-03-24T15:02:23.780Z,15.89
2023-03-24T15:05:25.886Z,15.85
2023-03-24T15:08:13.304Z,15.75
2023-03-24T15:10:55.095Z,15.63
2023-03-24T15:13:42.776Z,15.54
2023-03-24T15:16:41.988Z,15.46
2023-03-24T15:19:21.742Z,15.40
2023-03-24T15:22:03.812Z,15.37
2023-03-24T15:24:35.350Z,15.32
2023-03-24T15:27:07.007Z,15.27
2023-03-24T15:29:41.212Z,15.20
2023-03-24T15:32:19.611Z,15.12
2023-03-24T15:34:51.474Z,15.06
2023-03-24T15:37:27.502Z,15.02
2023-03-24T15:40:12.559Z,14.98
2023-03-24T15:42:46.908Z,14.92
2023-03-24T15:45:23.163Z,14.90
2023-03-24T15:47:54.290Z,14.90
2023-03-24T15:50:32.894Z,14.89
2023-03-24T15:53:08.147Z,14.88
2023-03-24T15:55:38.692Z,14.87
2023-03-24T15:58:28.704Z,14.83
2023-03-24T16:01:00.083Z,14.78
2023-03-24T16:03:34.354Z,14.75
2023-03-24T16:06:13.273Z,14.73
2023-03-24T16:08:43.384Z,14.73
2023-03-24T16:11:14.835Z,14.74
2023-03-24T16:13:47.272Z,14.74
2023-03-24T16:16:27.282Z,14.71
2023-03-24T16:18:59.835Z,14.69
2023-03-24T16:21:49.633Z,14.68
2023-03-24T16:24:18.600Z,14.66
2023-03-24T16:27:08.921Z,14.61
2023-03-24T16:29:41.629Z,14.56
2023-03-24T18:52:59.025Z,12.75
2023-03-24T18:55:53.474Z,12.67
2023-03-24T19:42:25.956Z,11.78
2023-03-24T19:44:59.167Z,11.77
2023-03-24T19:47:35.888Z,11.76
2023-03-24T19:50:09.448Z,11.72
2023-03-24T19:52:47.009Z,11.67
2023-03-24T19:55:23.838Z,11.57
2023-03-24T19:58:00.651Z,11.46
2023-03-24T20:00:34.172Z,11.38
2023-03-24T20:03:08.528Z,11.29
2023-03-24T20:05:43.569Z,11.22
2023-03-24T20:08:14.300Z,11.15
2023-03-24T20:17:02.738Z,11.05
2023-03-24T20:19:59.386Z,11.01
2023-03-24T20:22:51.703Z,10.94
2023-03-24T20:25:24.538Z,10.93
2023-03-24T20:27:57.117Z,10.90
2023-03-24T20:30:30.556Z,10.87
2023-03-24T20:33:03.496Z,10.85
2023-03-24T20:35:37.094Z,10.84
2023-03-24T20:38:08.234Z,10.79
2023-03-24T20:40:39.179Z,10.75
2023-03-24T20:43:10.796Z,10.72
2023-03-24T20:45:42.262Z,10.72
2023-03-24T20:48:15.559Z,10.71
2023-03-24T20:50:49.577Z,10.72
2023-03-24T20:53:21.207Z,10.75
2023-03-24T20:56:05.714Z,10.75
2023-03-24T20:58:42.745Z,10.73
2023-03-24T21:01:27.326Z,10.69
2023-03-24T21:04:08.352Z,10.69
2023-03-24T21:06:41.844Z,10.66
2023-03-24T21:09:23.543Z,10.52
2023-03-24T21:11:57.355Z,10.39
2023-03-24T21:14:31.042Z,10.27
2023-03-24T21:21:30.452Z,9.94
2023-03-24T21:24:05.534Z,9.85
2023-03-24T21:26:39.056Z,9.82
2023-03-24T21:29:13.435Z,9.82
2023-03-24T21:31:44.618Z,9.72
2023-03-24T21:34:18.344Z,9.64
2023-03-24T21:36:54.095Z,9.61
2023-03-24T21:39:25.246Z,9.55
2023-03-24T22:32:39.128Z,8.50
2023-03-24T22:35:09.860Z,8.51
2023-03-24T22:37:38.934Z,8.51
2023-03-24T22:40:10.332Z,8.49
2023-03-24T22:42:41.591Z,8.48
2023-03-24T22:45:14.340Z,8.46
2023-03-24T22:47:43.289Z,8.44
2023-03-24T22:54:37.461Z,8.48
2023-03-24T22:57:30.282Z,8.49
2023-03-24T23:06:20.079Z,8.52
2023-03-24T23:08:52.629Z,8.52
2023-03-24T23:11:21.554Z,8.50
2023-03-24T23:13:52.685Z,8.47
2023-03-24T23:16:23.016Z,8.42
2023-03-24T23:18:57.685Z,8.37
2023-03-24T23:21:30.724Z,8.31
2023-03-24T23:24:01.000Z,8.23
2023-03-24T23:26:31.913Z,8.16
2023-03-24T23:29:03.548Z,8.06
2023-03-24T23:31:36.076Z,8.02
2023-03-24T23:34:07.844Z,7.97
2023-03-24T23:36:40.001Z,7.95
2023-03-24T23:39:10.762Z,7.94
2023-03-24T23:41:40.158Z,7.94
2023-03-24T23:44:15.283Z,7.92
2023-03-24T23:46:46.740Z,7.90
2023-03-24T23:49:17.642Z,7.88
2023-03-24T23:51:51.039Z,7.87
2023-03-24T23:54:20.133Z,7.85
2023-03-24T23:56:54.294Z,7.80
2023-03-24T23:59:25.203Z,7.74
